Time;durP1;ratioP1;P1;durP2;ratioP2;P2;SDS_P1;SDS_P2;PMS_P1;PMS_P2;Temp;Humidity;BMP_temperature;BMP_pressure;BME280_temperature;BME280_humidity;BME280_pressure;Samples;Min_cycle;Max_cycle;Signal;HPM_P1;HPM_P2
2022/01/01 00:01:18;;;;;;;;;;;11.30;99.90;;;;;;5095892;28;19927;-78
2022/01/01 00:03:44;;;;;;;;;;;11.20;99.90;;;;;;5095578;28;19920;-79
2022/01/01 00:06:10;;;;;;;;;;;11.20;99.90;;;;;;5094893;28;19920;-77
2022/01/01 00:08:35;;;;;;;;;;;11.50;99.90;;;;;;5095618;28;20298;-79
2022/01/01 00:11:01;;;;;;;;;;;11.20;99.90;;;;;;5095583;28;20295;-78
2022/01/01 00:13:26;;;;;;;;;;;11.20;99.90;;;;;;5095417;28;20064;-78
2022/01/01 00:15:52;;;;;;;;;;;10.80;99.90;;;;;;5095686;28;20345;-79
2022/01/01 00:18:17;;;;;;;;;;;11.20;99.90;;;;;;5095496;28;19920;-78
2022/01/01 00:20:43;;;;;;;;;;;11.30;99.90;;;;;;5095397;28;20018;-79
2022/01/01 00:23:08;;;;;;;;;;;11.20;99.90;;;;;;5095377;28;20298;-80
2022/01/01 00:25:34;;;;;;;;;;;12.10;99.90;;;;;;5095354;28;19919;-77
2022/01/01 00:27:59;;;;;;;;;;;11.20;99.90;;;;;;5095167;28;20458;-78
2022/01/01 00:30:25;;;;;;;;;;;11.20;99.90;;;;;;5095003;28;19920;-79
2022/01/01 00:32:51;;;;;;;;;;;11.30;99.90;;;;;;5095309;28;19920;-79
2022/01/01 00:35:16;;;;;;;;;;;11.10;99.90;;;;;;5095251;28;19920;-77
2022/01/01 00:37:42;;;;;;;;;;;11.10;99.90;;;;;;5095184;28;19965;-79
2022/01/01 00:40:07;;;;;;;;;;;11.10;99.90;;;;;;5095115;28;19931;-78
2022/01/01 00:42:33;;;;;;;;;;;11.10;99.90;;;;;;5094921;28;19920;-78
2022/01/01 00:44:58;;;;;;;;;;;11.10;99.90;;;;;;5094757;28;19926;-78
2022/01/01 00:47:24;;;;;;;;;;;11.70;99.90;;;;;;5095490;28;19973;-77
2022/01/01 00:49:50;;;;;;;;;;;11.10;99.90;;;;;;5094691;28;19920;-77
2022/01/01 00:52:15;;;;;;;;;;;11.10;99.90;;;;;;5094854;28;19920;-80
2022/01/01 00:54:41;;;;;;;;;;;11.10;99.90;;;;;;5094658;28;19920;-79
2022/01/01 00:57:07;;;;;;;;;;;11.10;99.90;;;;;;5094778;28;19920;-78
2022/01/01 00:59:32;;;;;;;;;;;11.10;99.90;;;;;;5094664;28;19920;-80
2022/01/01 01:01:58;;;;;;;;;;;11.10;99.90;;;;;;5094948;28;19930;-78
2022/01/01 01:04:24;;;;;;;;;;;11.10;99.90;;;;;;5093444;28;20382;-77
2022/01/01 01:06:50;;;;;;;;;;;11.10;99.90;;;;;;5094698;28;19927;-81
2022/01/01 01:09:15;;;;;;;;;;;11.10;99.90;;;;;;5093633;28;19920;-77
2022/01/01 01:11:44;;;;;;;;;;;11.00;99.90;;;;;;5093621;28;19920;-77
2022/01/01 01:14:18;;;;;;;;;;;11.10;99.90;;;;;;5094469;28;19942;-80
2022/01/01 01:16:44;;;;;;;;;;;11.10;99.90;;;;;;5094518;28;19921;-78
2022/01/01 01:19:10;;;;;;;;;;;11.00;99.90;;;;;;5094329;28;20366;-78
2022/01/01 01:21:35;;;;;;;;;;;11.10;99.90;;;;;;5094155;28;19977;-77
2022/01/01 01:24:01;;;;;;;;;;;11.10;99.90;;;;;;5094240;28;19920;-79
2022/01/01 01:26:28;;;;;;;;;;;11.10;99.90;;;;;;5093313;28;19920;-76
2022/01/01 01:28:55;;;;;;;;;;;11.00;99.90;;;;;;5093911;28;19920;-79
2022/01/01 01:31:23;;;;;;;;;;;11.10;99.90;;;;;;5094320;28;19973;-80
2022/01/01 01:33:49;;;;;;;;;;;12.00;99.90;;;;;;5094212;28;19919;-78
2022/01/01 01:36:14;;;;;;;;;;;11.00;99.90;;;;;;5093083;28;19920;-77
2022/01/01 01:38:40;;;;;;;;;;;11.00;99.90;;;;;;5094116;28;19943;-78
2022/01/01 01:41:07;;;;;;;;;;;11.00;99.90;;;;;;5093991;28;19950;-79
2022/01/01 01:43:33;;;;;;;;;;;11.00;99.90;;;;;;5093976;28;19919;-80
2022/01/01 01:46:03;;;;;;;;;;;11.00;99.90;;;;;;5093913;28;19931;-79
2022/01/01 01:48:29;;;;;;;;;;;11.00;99.90;;;;;;5092647;28;20276;-78
2022/01/01 01:50:56;;;;;;;;;;;11.00;99.90;;;;;;5093629;28;19935;-77
2022/01/01 01:53:22;;;;;;;;;;;11.00;99.90;;;;;;5093781;28;19926;-81
2022/01/01 01:55:47;;;;;;;;;;;11.00;99.90;;;;;;5092939;28;19967;-77
2022/01/01 01:58:13;;;;;;;;;;;11.00;99.90;;;;;;5092845;28;19986;-78
2022/01/01 02:03:23;;;;;;;;;;;11.00;99.90;;;;;;5093595;28;20492;-81
2022/01/01 02:05:48;;;;;;;;;;;10.90;99.90;;;;;;5093763;28;19932;-78
2022/01/01 02:08:15;;;;;;;;;;;10.90;99.90;;;;;;5093597;28;19920;-79
2022/01/01 02:10:40;;;;;;;;;;;10.90;99.90;;;;;;5093712;28;20014;-79
2022/01/01 02:13:14;;;;;;;;;;;10.90;99.90;;;;;;5093585;28;20462;-78
2022/01/01 02:18:05;;;;;;;;;;;12.00;99.90;;;;;;5093546;28;19920;-78
2022/01/01 02:20:31;;;;;;;;;;;10.80;99.90;;;;;;5094730;28;19920;-79
2022/01/01 02:23:00;;;;;;;;;;;10.90;99.90;;;;;;5096598;28;19927;-78
2022/01/01 02:25:26;;;;;;;;;;;10.90;99.90;;;;;;5097739;28;19920;-77
2022/01/01 02:27:52;;;;;;;;;;;10.80;99.90;;;;;;5097510;28;19929;-79
2022/01/01 02:30:18;;;;;;;;;;;11.40;99.90;;;;;;5079509;28;19945;-79
2022/01/01 02:32:46;;;;;;;;;;;10.90;99.90;;;;;;5097714;28;19927;-78
2022/01/01 02:35:13;;;;;;;;;;;10.90;99.90;;;;;;5097557;28;20291;-78
2022/01/01 02:37:39;;;;;;;;;;;12.10;99.90;;;;;;5097436;28;20405;-79
2022/01/01 02:40:05;;;;;;;;;;;10.90;99.90;;;;;;5096512;28;19921;-78
2022/01/01 02:42:30;;;;;;;;;;;10.90;99.90;;;;;;5097222;28;19919;-78
2022/01/01 02:44:58;;;;;;;;;;;10.90;99.90;;;;;;5097534;28;20015;-78
2022/01/01 02:47:24;;;;;;;;;;;10.90;99.90;;;;;;5097418;28;19920;-78
2022/01/01 02:49:50;;;;;;;;;;;11.20;99.90;;;;;;5097269;28;20270;-80
2022/01/01 02:52:15;;;;;;;;;;;10.90;99.90;;;;;;5097184;28;19966;-77
2022/01/01 02:54:41;;;;;;;;;;;10.90;99.90;;;;;;5097105;28;20361;-79
2022/01/01 02:57:06;;;;;;;;;;;10.90;99.90;;;;;;5096959;28;19920;-78
2022/01/01 02:59:32;;;;;;;;;;;10.90;99.90;;;;;;5097227;28;20378;-79
2022/01/01 03:01:57;;;;;;;;;;;11.00;99.90;;;;;;5097156;28;19927;-79
2022/01/01 03:04:23;;;;;;;;;;;11.00;99.90;;;;;;5096987;28;19920;-79
2022/01/01 03:06:54;;;;;;;;;;;11.00;99.90;;;;;;5096038;28;19920;-76
2022/01/01 03:09:20;;;;;;;;;;;11.00;99.90;;;;;;5095603;28;20306;-78
2022/01/01 03:11:46;;;;;;;;;;;10.80;99.90;;;;;;5096724;28;19920;-78
2022/01/01 03:14:17;;;;;;;;;;;11.00;99.90;;;;;;5096963;28;19920;-78
2022/01/01 03:16:46;;;;;;;;;;;11.00;99.90;;;;;;5095927;28;20286;-77
2022/01/01 03:19:11;;;;;;;;;;;11.00;99.90;;;;;;5096663;28;20342;-78
2022/01/01 03:21:37;;;;;;;;;;;11.00;99.90;;;;;;5095760;28;19927;-78
2022/01/01 03:24:03;;;;;;;;;;;11.10;99.90;;;;;;5096558;28;19973;-77
2022/01/01 03:26:28;;;;;;;;;;;11.10;99.90;;;;;;5096478;28;19924;-78
2022/01/01 03:28:54;;;;;;;;;;;10.80;99.90;;;;;;5096189;28;19930;-79
2022/01/01 03:31:20;;;;;;;;;;;11.10;99.90;;;;;;5096448;28;19927;-79
2022/01/01 03:33:45;;;;;;;;;;;11.10;99.90;;;;;;5095657;28;19920;-79
2022/01/01 03:36:11;;;;;;;;;;;11.10;99.90;;;;;;5096388;28;19927;-78
2022/01/01 03:38:37;;;;;;;;;;;11.00;99.90;;;;;;5096372;28;19920;-78
2022/01/01 03:41:02;;;;;;;;;;;11.00;99.90;;;;;;5096182;28;20283;-78
2022/01/01 03:43:28;;;;;;;;;;;11.30;99.90;;;;;;5096055;28;19974;-80
2022/01/01 03:45:53;;;;;;;;;;;11.30;99.90;;;;;;5096358;28;19927;-80
2022/01/01 03:48:19;;;;;;;;;;;11.00;99.90;;;;;;5096097;28;20401;-78
2022/01/01 03:50:44;;;;;;;;;;;11.00;99.90;;;;;;5095804;28;19919;-79
2022/01/01 03:53:10;;;;;;;;;;;11.00;99.90;;;;;;5095897;28;19919;-78
2022/01/01 03:55:35;;;;;;;;;;;11.10;99.90;;;;;;5095891;28;19920;-78
2022/01/01 03:58:01;;;;;;;;;;;10.90;99.90;;;;;;5094524;28;19920;-78
2022/01/01 04:00:27;;;;;;;;;;;11.00;99.90;;;;;;5095982;28;19970;-79
2022/01/01 04:02:52;;;;;;;;;;;11.00;99.90;;;;;;5095781;28;19920;-81
2022/01/01 04:05:18;;;;;;;;;;;11.90;99.90;;;;;;5095791;28;20015;-80
2022/01/01 04:07:43;;;;;;;;;;;12.40;99.90;;;;;;5095677;28;19989;-78
2022/01/01 04:10:09;;;;;;;;;;;10.90;99.90;;;;;;5094774;28;19926;-79
2022/01/01 04:12:35;;;;;;;;;;;10.90;99.90;;;;;;5095642;28;19969;-77
2022/01/01 04:15:02;;;;;;;;;;;10.90;99.90;;;;;;5094464;28;19927;-78
2022/01/01 04:17:27;;;;;;;;;;;10.90;99.90;;;;;;5095703;28;19934;-80
2022/01/01 04:19:53;;;;;;;;;;;10.90;99.90;;;;;;5095449;28;19924;-79
2022/01/01 04:22:18;;;;;;;;;;;10.90;99.90;;;;;;5094594;28;19927;-79
2022/01/01 04:24:44;;;;;;;;;;;10.90;99.90;;;;;;5095384;28;19920;-80
2022/01/01 04:27:10;;;;;;;;;;;10.90;99.90;;;;;;5095382;28;19921;-79
2022/01/01 04:29:36;;;;;;;;;;;10.80;99.90;;;;;;5093879;28;19969;-77
2022/01/01 04:32:02;;;;;;;;;;;10.90;99.90;;;;;;5095628;28;20018;-81
2022/01/01 04:34:28;;;;;;;;;;;10.90;99.90;;;;;;5095307;28;20024;-80
2022/01/01 04:37:02;;;;;;;;;;;10.80;99.90;;;;;;5095297;28;20371;-79
2022/01/01 04:39:28;;;;;;;;;;;10.90;99.90;;;;;;5094258;28;19919;-80
2022/01/01 04:41:53;;;;;;;;;;;10.20;99.90;;;;;;5095066;28;19920;-78
2022/01/01 04:44:19;;;;;;;;;;;10.90;99.90;;;;;;5094032;28;19966;-78
2022/01/01 04:46:44;;;;;;;;;;;10.80;99.90;;;;;;5094266;28;19927;-77
2022/01/01 04:49:10;;;;;;;;;;;10.80;99.90;;;;;;5094734;28;20355;-78
2022/01/01 04:51:35;;;;;;;;;;;10.80;99.90;;;;;;5094970;28;20272;-78
2022/01/01 04:54:02;;;;;;;;;;;10.80;99.90;;;;;;5094730;28;19974;-80
2022/01/01 04:56:30;;;;;;;;;;;10.80;99.90;;;;;;5094800;28;19920;-78
2022/01/01 04:58:56;;;;;;;;;;;10.80;99.90;;;;;;5094613;28;19920;-80
2022/01/01 05:01:21;;;;;;;;;;;10.80;99.90;;;;;;5094900;28;19920;-78
2022/01/01 05:03:47;;;;;;;;;;;10.80;99.90;;;;;;5094812;28;19943;-80
2022/01/01 05:06:13;;;;;;;;;;;10.80;99.90;;;;;;5094711;28;20379;-78
2022/01/01 05:08:39;;;;;;;;;;;10.80;99.90;;;;;;5094522;28;19924;-78
2022/01/01 05:11:05;;;;;;;;;;;10.80;99.90;;;;;;5094640;28;19920;-77
2022/01/01 05:13:30;;;;;;;;;;;10.80;99.90;;;;;;5094519;28;20375;-78
2022/01/01 05:15:56;;;;;;;;;;;10.80;99.90;;;;;;5094446;28;20007;-78
2022/01/01 05:18:22;;;;;;;;;;;10.80;99.90;;;;;;5094444;28;20383;-82
2022/01/01 05:20:48;;;;;;;;;;;12.00;99.90;;;;;;5094464;28;19931;-79
2022/01/01 05:23:14;;;;;;;;;;;10.80;99.90;;;;;;5093414;28;19931;-79
2022/01/01 05:25:40;;;;;;;;;;;10.80;99.90;;;;;;5094302;28;19920;-81
2022/01/01 05:28:05;;;;;;;;;;;11.90;99.90;;;;;;5094111;28;19927;-79
2022/01/01 05:30:31;;;;;;;;;;;10.80;99.90;;;;;;5094077;28;19927;-79
2022/01/01 05:33:00;;;;;;;;;;;10.80;99.90;;;;;;5094321;28;19920;-77
2022/01/01 05:35:25;;;;;;;;;;;10.80;99.90;;;;;;5094195;28;20286;-80
2022/01/01 05:37:51;;;;;;;;;;;10.80;99.90;;;;;;5094154;28;19920;-81
2022/01/01 05:40:17;;;;;;;;;;;10.80;99.90;;;;;;5093941;28;19920;-79
2022/01/01 05:42:43;;;;;;;;;;;10.80;99.90;;;;;;5076174;28;19920;-77
2022/01/01 05:45:08;;;;;;;;;;;10.80;99.90;;;;;;5093905;28;19931;-78
2022/01/01 05:47:34;;;;;;;;;;;10.80;99.90;;;;;;5092886;28;19920;-78
2022/01/01 05:50:00;;;;;;;;;;;10.90;99.90;;;;;;5093627;28;19920;-78
2022/01/01 05:52:26;;;;;;;;;;;10.80;99.90;;;;;;5093948;28;19920;-77
2022/01/01 05:54:51;;;;;;;;;;;10.80;99.90;;;;;;5092584;28;19927;-81
2022/01/01 05:57:17;;;;;;;;;;;10.80;99.90;;;;;;5092886;28;19920;-78
2022/01/01 05:59:42;;;;;;;;;;;10.80;99.90;;;;;;5093738;28;19920;-80
2022/01/01 06:02:08;;;;;;;;;;;10.80;99.90;;;;;;5094037;28;19969;-77
2022/01/01 06:04:34;;;;;;;;;;;12.10;99.90;;;;;;5092899;28;19927;-79
2022/01/01 06:06:59;;;;;;;;;;;10.80;99.90;;;;;;5092872;28;19973;-77
2022/01/01 06:09:25;;;;;;;;;;;10.80;99.90;;;;;;5092531;28;20275;-79
2022/01/01 06:11:51;;;;;;;;;;;10.80;99.90;;;;;;5093701;28;19924;-79
2022/01/01 06:14:16;;;;;;;;;;;10.80;99.90;;;;;;5093646;28;19927;-78
2022/01/01 06:16:42;;;;;;;;;;;10.80;99.90;;;;;;5092632;28;19927;-79
2022/01/01 06:19:07;;;;;;;;;;;10.80;99.90;;;;;;5093762;28;20303;-81
2022/01/01 06:21:33;;;;;;;;;;;12.10;99.90;;;;;;5092798;28;19927;-79
2022/01/01 06:23:58;;;;;;;;;;;10.80;99.90;;;;;;5093734;28;19931;-78
2022/01/01 06:26:24;;;;;;;;;;;10.80;99.90;;;;;;5093661;28;20014;-79
2022/01/01 06:28:50;;;;;;;;;;;10.80;99.90;;;;;;5092307;28;19973;-80
2022/01/01 06:31:15;;;;;;;;;;;10.90;99.90;;;;;;5093751;28;19919;-79
2022/01/01 06:33:41;;;;;;;;;;;10.90;99.90;;;;;;5093339;28;19920;-81
2022/01/01 06:36:11;;;;;;;;;;;10.90;99.90;;;;;;5093369;28;20332;-79
2022/01/01 06:38:38;;;;;;;;;;;10.90;99.90;;;;;;5092473;28;20296;-78
2022/01/01 06:41:03;;;;;;;;;;;10.90;99.90;;;;;;5093481;28;19920;-78
2022/01/01 06:43:29;;;;;;;;;;;10.90;99.90;;;;;;5092417;28;19967;-79
2022/01/01 06:45:54;;;;;;;;;;;11.00;99.90;;;;;;5092436;28;19927;-78
2022/01/01 06:48:20;;;;;;;;;;;10.90;99.90;;;;;;5093176;28;20324;-81
2022/01/01 06:50:46;;;;;;;;;;;10.90;99.90;;;;;;5093319;28;19920;-80
2022/01/01 06:53:11;;;;;;;;;;;11.00;99.90;;;;;;5093493;28;20370;-80
2022/01/01 06:55:37;;;;;;;;;;;11.10;99.90;;;;;;5093482;28;19920;-79
2022/01/01 06:58:02;;;;;;;;;;;10.90;99.90;;;;;;5093248;28;19965;-78
2022/01/01 07:00:28;;;;;;;;;;;10.20;99.90;;;;;;5093080;28;19924;-79
2022/01/01 07:02:53;;;;;;;;;;;10.90;99.90;;;;;;5075252;28;19920;-79
2022/01/01 07:05:19;;;;;;;;;;;10.90;99.90;;;;;;5093559;28;19920;-79
2022/01/01 07:07:44;;;;;;;;;;;10.80;99.90;;;;;;5094585;28;19920;-78
2022/01/01 07:10:11;;;;;;;;;;;10.80;99.90;;;;;;5096977;28;20370;-79
2022/01/01 07:12:37;;;;;;;;;;;10.80;99.90;;;;;;5096916;28;19966;-79
2022/01/01 07:15:04;;;;;;;;;;;10.80;99.90;;;;;;5096805;28;19920;-77
2022/01/01 07:17:29;;;;;;;;;;;10.80;99.90;;;;;;5096648;28;19920;-80
2022/01/01 07:19:55;;;;;;;;;;;10.80;99.90;;;;;;5096778;28;19920;-79
2022/01/01 07:22:20;;;;;;;;;;;11.30;99.90;;;;;;5096763;28;19949;-79
2022/01/01 07:24:46;;;;;;;;;;;10.80;99.90;;;;;;5078774;28;19920;-78
2022/01/01 07:27:12;;;;;;;;;;;10.80;99.90;;;;;;5096623;28;20314;-77
2022/01/01 07:29:38;;;;;;;;;;;10.90;99.90;;;;;;5078281;28;20398;-78
2022/01/01 07:32:04;;;;;;;;;;;10.70;99.90;;;;;;5096461;28;19927;-78
2022/01/01 07:34:29;;;;;;;;;;;10.70;99.90;;;;;;5095209;28;19920;-80
2022/01/01 07:36:55;;;;;;;;;;;10.70;99.90;;;;;;5096542;28;19920;-77
2022/01/01 07:39:20;;;;;;;;;;;10.70;99.90;;;;;;5095535;28;19920;-78
2022/01/01 07:41:46;;;;;;;;;;;10.70;99.90;;;;;;5096362;28;20061;-78
2022/01/01 07:44:13;;;;;;;;;;;10.80;99.90;;;;;;5096310;28;20260;-78
2022/01/01 07:46:39;;;;;;;;;;;10.70;99.90;;;;;;5096256;28;19982;-78
2022/01/01 07:49:04;;;;;;;;;;;10.70;99.90;;;;;;5094711;28;19967;-78
2022/01/01 07:51:33;;;;;;;;;;;10.80;99.90;;;;;;5095803;28;19920;-78
2022/01/01 07:53:58;;;;;;;;;;;10.70;99.90;;;;;;5096142;28;20387;-80
2022/01/01 07:56:24;;;;;;;;;;;10.80;99.90;;;;;;5096115;28;19920;-78
2022/01/01 07:58:49;;;;;;;;;;;10.80;99.90;;;;;;5095988;28;19927;-80
2022/01/01 08:01:15;;;;;;;;;;;9.40;99.90;;;;;;5078154;28;20018;-78
2022/01/01 08:03:41;;;;;;;;;;;11.40;99.90;;;;;;5095777;28;19920;-79
2022/01/01 08:06:06;;;;;;;;;;;10.80;99.90;;;;;;5094730;28;20384;-76
2022/01/01 08:08:32;;;;;;;;;;;11.20;99.90;;;;;;5095823;28;20062;-79
2022/01/01 08:10:58;;;;;;;;;;;10.80;99.90;;;;;;5095851;28;19927;-78
2022/01/01 08:13:25;;;;;;;;;;;11.60;99.90;;;;;;5095740;28;20318;-77
2022/01/01 08:15:51;;;;;;;;;;;10.90;99.90;;;;;;5095669;28;19926;-77
2022/01/01 08:18:17;;;;;;;;;;;10.90;99.90;;;;;;5095223;28;20322;-78
2022/01/01 08:20:43;;;;;;;;;;;10.90;99.90;;;;;;5095322;28;19927;-78
2022/01/01 08:23:09;;;;;;;;;;;10.90;99.90;;;;;;5094516;28;19935;-78
2022/01/01 08:25:34;;;;;;;;;;;11.70;99.90;;;;;;5095563;28;19926;-80
2022/01/01 08:28:00;;;;;;;;;;;10.90;99.90;;;;;;5095209;28;19977;-76
2022/01/01 08:30:26;;;;;;;;;;;10.90;99.90;;;;;;5094172;28;19931;-77
2022/01/01 08:32:51;;;;;;;;;;;11.00;99.90;;;;;;5095278;28;20347;-78
2022/01/01 08:35:17;;;;;;;;;;;11.00;99.90;;;;;;5095052;28;20304;-78
2022/01/01 08:37:42;;;;;;;;;;;11.00;99.90;;;;;;5094140;28;19965;-78
2022/01/01 08:40:08;;;;;;;;;;;11.00;99.90;;;;;;5093742;28;19924;-80
2022/01/01 08:42:34;;;;;;;;;;;11.00;99.90;;;;;;5094957;28;19920;-79
2022/01/01 08:45:00;;;;;;;;;;;11.00;99.90;;;;;;5094971;28;19927;-79
2022/01/01 08:47:26;;;;;;;;;;;11.00;99.90;;;;;;5094838;28;19973;-79
2022/01/01 08:49:55;;;;;;;;;;;12.30;99.90;;;;;;5094526;28;19975;-80
2022/01/01 08:52:22;;;;;;;;;;;11.00;99.90;;;;;;5094961;28;19925;-80
2022/01/01 08:54:47;;;;;;;;;;;11.00;99.90;;;;;;5093766;28;19919;-78
2022/01/01 08:57:13;;;;;;;;;;;11.10;99.90;;;;;;5094849;28;19924;-77
2022/01/01 08:59:39;;;;;;;;;;;11.00;99.90;;;;;;5093858;28;19924;-78
2022/01/01 09:02:05;;;;;;;;;;;11.10;99.90;;;;;;5093423;28;20314;-77
2022/01/01 09:04:30;;;;;;;;;;;11.10;99.90;;;;;;5093451;28;19971;-76
2022/01/01 09:06:56;;;;;;;;;;;11.10;99.90;;;;;;5094546;28;20390;-78
2022/01/01 09:09:21;;;;;;;;;;;11.10;99.90;;;;;;5093398;28;20028;-77
2022/01/01 09:11:47;;;;;;;;;;;11.10;99.90;;;;;;5094643;28;19966;-78
2022/01/01 09:14:12;;;;;;;;;;;11.10;99.90;;;;;;5093524;28;19931;-79
2022/01/01 09:16:38;;;;;;;;;;;11.10;99.90;;;;;;5076713;28;19924;-78
2022/01/01 09:19:05;;;;;;;;;;;11.10;99.90;;;;;;5094330;28;19920;-76
2022/01/01 09:21:31;;;;;;;;;;;11.20;99.90;;;;;;5094277;28;20291;-77
2022/01/01 09:23:57;;;;;;;;;;;11.10;99.90;;;;;;5094377;28;20407;-78
2022/01/01 09:26:23;;;;;;;;;;;11.20;99.90;;;;;;5092349;28;19924;-75
2022/01/01 09:28:48;;;;;;;;;;;11.20;99.90;;;;;;5094005;28;20387;-76
2022/01/01 09:31:14;;;;;;;;;;;11.20;99.90;;;;;;5093089;28;20283;-77
2022/01/01 09:33:40;;;;;;;;;;;11.20;99.90;;;;;;5094194;28;19920;-76
2022/01/01 09:36:32;;;;;;;;;;;11.20;99.90;;;;;;5093676;28;19930;-83
2022/01/01 09:38:57;;;;;;;;;;;11.20;99.90;;;;;;5094295;28;19927;-76
2022/01/01 09:41:23;;;;;;;;;;;11.20;99.90;;;;;;5093847;28;19920;-75
2022/01/01 09:43:50;;;;;;;;;;;11.20;99.90;;;;;;5094165;28;20279;-77
2022/01/01 09:46:15;;;;;;;;;;;12.20;99.90;;;;;;5093059;28;19926;-76
2022/01/01 09:48:41;;;;;;;;;;;11.30;99.90;;;;;;5093733;28;19920;-77
2022/01/01 09:51:09;;;;;;;;;;;11.30;99.90;;;;;;5093706;28;19988;-78
2022/01/01 09:53:35;;;;;;;;;;;11.30;99.90;;;;;;5093518;28;20299;-76
2022/01/01 09:56:01;;;;;;;;;;;11.30;99.90;;;;;;5093922;28;19934;-75
2022/01/01 09:58:27;;;;;;;;;;;11.30;99.90;;;;;;5093893;28;20022;-75
2022/01/01 10:00:53;;;;;;;;;;;11.40;99.90;;;;;;5092615;28;20363;-79
2022/01/01 10:03:33;;;;;;;;;;;11.40;99.90;;;;;;5076010;28;19950;-74
2022/01/01 10:06:01;;;;;;;;;;;11.40;99.90;;;;;;5093446;28;20290;-74
2022/01/01 10:08:27;;;;;;;;;;;12.70;99.90;;;;;;5092636;28;20382;-75
2022/01/01 10:10:53;;;;;;;;;;;11.50;99.90;;;;;;5126723;27;19920;-77
2022/01/01 10:13:24;;;;;;;;;;;12.70;99.90;;;;;;5093676;28;19924;-76
2022/01/01 10:15:49;;;;;;;;;;;11.50;99.90;;;;;;5093687;28;19920;-76
2022/01/01 10:18:15;;;;;;;;;;;11.50;99.90;;;;;;5092526;28;20363;-75
2022/01/01 10:20:43;;;;;;;;;;;11.90;99.90;;;;;;5093692;28;20371;-77
2022/01/01 10:23:15;;;;;;;;;;;11.60;99.90;;;;;;5109610;28;19927;-76
2022/01/01 10:28:25;;;;;;;;;;;11.60;99.90;;;;;;5093268;28;20302;-75
2022/01/01 10:30:50;;;;;;;;;;;11.60;99.90;;;;;;5091156;28;19920;-75
2022/01/01 10:33:17;;;;;;;;;;;11.90;99.90;;;;;;5092710;28;19924;-76
2022/01/01 10:35:44;;;;;;;;;;;11.60;99.90;;;;;;5092246;28;20392;-75
2022/01/01 10:38:11;;;;;;;;;;;11.60;99.90;;;;;;5092109;28;19942;-75
2022/01/01 10:40:37;;;;;;;;;;;11.70;99.90;;;;;;5093329;28;20012;-75
2022/01/01 10:43:03;;;;;;;;;;;11.70;99.90;;;;;;5096911;28;20006;-75
2022/01/01 10:45:30;;;;;;;;;;;11.70;99.90;;;;;;5097278;28;19969;-78
2022/01/01 10:48:06;;;;;;;;;;;11.80;99.90;;;;;;5097416;28;19927;-75
2022/01/01 10:50:32;;;;;;;;;;;11.80;99.90;;;;;;5097092;28;20371;-76
2022/01/01 10:53:08;;;;;;;;;;;11.80;99.90;;;;;;5096191;28;19920;-76
2022/01/01 10:55:34;;;;;;;;;;;12.80;99.90;;;;;;5097062;28;20014;-74
2022/01/01 10:58:01;;;;;;;;;;;11.90;99.90;;;;;;5097027;28;20046;-75
2022/01/01 11:00:27;;;;;;;;;;;11.90;99.90;;;;;;5097157;28;19920;-75
2022/01/01 11:02:54;;;;;;;;;;;11.90;99.90;;;;;;5097127;28;20345;-75
2022/01/01 11:05:32;;;;;;;;;;;12.20;99.90;;;;;;5097041;28;19924;-76
2022/01/01 11:07:58;;;;;;;;;;;11.90;99.90;;;;;;5095932;28;20465;-75
2022/01/01 11:10:25;;;;;;;;;;;11.90;99.90;;;;;;5095261;28;19924;-76
2022/01/01 11:12:51;;;;;;;;;;;11.90;99.90;;;;;;5096649;28;20445;-76
2022/01/01 11:15:17;;;;;;;;;;;12.00;99.90;;;;;;5095782;28;19923;-74
2022/01/01 11:17:43;;;;;;;;;;;12.00;99.90;;;;;;5129111;27;19920;-76
2022/01/01 11:20:09;;;;;;;;;;;12.00;99.90;;;;;;5096626;28;19924;-77
2022/01/01 11:22:35;;;;;;;;;;;12.00;99.90;;;;;;5095589;28;19920;-78
2022/01/01 11:25:01;;;;;;;;;;;12.00;99.90;;;;;;5096579;28;20268;-76
2022/01/01 11:27:27;;;;;;;;;;;12.10;99.90;;;;;;5096508;28;19920;-75
2022/01/01 11:29:53;;;;;;;;;;;12.10;99.90;;;;;;5096469;28;19973;-76
2022/01/01 11:32:20;;;;;;;;;;;13.10;99.90;;;;;;5096549;28;19928;-73
2022/01/01 11:34:47;;;;;;;;;;;12.10;99.90;;;;;;5096581;28;19926;-74
2022/01/01 11:37:16;;;;;;;;;;;12.20;99.90;;;;;;5096300;28;19920;-75
2022/01/01 11:39:42;;;;;;;;;;;12.20;99.90;;;;;;5096306;28;20044;-75
2022/01/01 11:42:10;;;;;;;;;;;12.20;99.90;;;;;;5096178;28;19962;-74
2022/01/01 11:44:35;;;;;;;;;;;12.20;99.90;;;;;;5096530;28;19923;-75
2022/01/01 11:47:03;;;;;;;;;;;12.30;99.90;;;;;;5096333;28;19920;-74
2022/01/01 11:49:29;;;;;;;;;;;12.30;99.90;;;;;;5095932;28;19924;-75
2022/01/01 11:51:56;;;;;;;;;;;12.30;99.90;;;;;;5096213;28;19989;-76
2022/01/01 11:54:23;;;;;;;;;;;12.30;99.90;;;;;;5094444;28;19927;-76
2022/01/01 11:56:56;;;;;;;;;;;12.30;99.90;;;;;;5095872;28;19919;-74
2022/01/01 11:59:31;;;;;;;;;;;12.30;99.90;;;;;;5095965;28;20018;-76
2022/01/01 12:02:03;;;;;;;;;;;12.30;99.90;;;;;;5095950;28;19927;-74
2022/01/01 12:04:32;;;;;;;;;;;12.40;99.90;;;;;;5128752;27;19931;-75
2022/01/01 12:07:02;;;;;;;;;;;12.40;99.90;;;;;;5094339;28;19927;-74
2022/01/01 12:09:27;;;;;;;;;;;12.40;99.90;;;;;;5093817;28;19920;-76
2022/01/01 12:11:54;;;;;;;;;;;12.40;99.90;;;;;;5096058;28;19942;-74
2022/01/01 12:14:23;;;;;;;;;;;12.40;99.90;;;;;;5095820;28;20096;-75
2022/01/01 12:16:51;;;;;;;;;;;12.40;99.90;;;;;;5094662;28;19994;-76
2022/01/01 12:19:19;;;;;;;;;;;12.40;99.90;;;;;;5095648;28;20001;-74
2022/01/01 12:21:45;;;;;;;;;;;12.40;99.90;;;;;;5095466;28;19946;-74
2022/01/01 12:24:17;;;;;;;;;;;12.40;99.90;;;;;;5095348;28;19924;-75
2022/01/01 12:26:49;;;;;;;;;;;12.40;99.90;;;;;;5094609;28;19927;-75
2022/01/01 12:29:20;;;;;;;;;;;12.40;99.90;;;;;;5095404;28;19920;-75
2022/01/01 12:31:56;;;;;;;;;;;12.40;99.90;;;;;;5095300;28;19920;-74
2022/01/01 12:34:22;;;;;;;;;;;12.40;99.90;;;;;;5094307;28;19920;-73
2022/01/01 12:36:52;;;;;;;;;;;12.40;99.90;;;;;;5095545;28;19920;-74
2022/01/01 12:39:17;;;;;;;;;;;12.40;99.90;;;;;;5095406;28;19967;-74
2022/01/01 12:41:44;;;;;;;;;;;12.60;99.90;;;;;;5095272;28;19955;-74
2022/01/01 12:44:17;;;;;;;;;;;12.40;99.90;;;;;;5094293;28;19996;-76
2022/01/01 12:46:50;;;;;;;;;;;11.80;99.90;;;;;;5094992;28;20327;-75
2022/01/01 12:49:16;;;;;;;;;;;12.40;99.90;;;;;;5094812;28;19935;-75
2022/01/01 12:51:42;;;;;;;;;;;12.40;99.90;;;;;;5092988;28;20373;-75
2022/01/01 12:54:15;;;;;;;;;;;12.40;99.90;;;;;;5094940;28;19924;-75
2022/01/01 12:56:46;;;;;;;;;;;12.40;99.90;;;;;;5094993;28;19920;-74
2022/01/01 12:59:13;;;;;;;;;;;12.40;99.90;;;;;;5093883;28;20011;-75
2022/01/01 13:01:39;;;;;;;;;;;12.40;99.90;;;;;;5094975;28;20398;-75
2022/01/01 13:04:08;;;;;;;;;;;12.40;99.90;;;;;;5094568;28;20038;-75
2022/01/01 13:06:36;;;;;;;;;;;12.40;99.90;;;;;;5093993;28;20006;-77
2022/01/01 13:09:12;;;;;;;;;;;12.40;99.90;;;;;;5094669;28;19927;-75
2022/01/01 13:11:39;;;;;;;;;;;12.40;99.90;;;;;;5094683;28;19970;-75
2022/01/01 13:14:05;;;;;;;;;;;12.40;99.90;;;;;;5094794;28;20352;-75
2022/01/01 13:16:31;;;;;;;;;;;11.60;99.90;;;;;;5094389;28;20375;-75
2022/01/01 13:18:57;;;;;;;;;;;12.40;99.90;;;;;;5094440;28;19920;-75
2022/01/01 13:21:25;;;;;;;;;;;12.40;99.90;;;;;;5094435;28;19927;-74
2022/01/01 13:23:51;;;;;;;;;;;12.40;99.90;;;;;;5094295;28;19920;-75
2022/01/01 13:26:17;;;;;;;;;;;12.40;99.90;;;;;;5094312;28;19920;-75
2022/01/01 13:28:46;;;;;;;;;;;12.40;99.90;;;;;;5094279;28;19920;-75
2022/01/01 13:31:12;;;;;;;;;;;12.40;99.90;;;;;;5094401;28;19943;-74
2022/01/01 13:33:48;;;;;;;;;;;12.40;99.90;;;;;;5092899;28;20311;-76
2022/01/01 13:36:31;;;;;;;;;;;12.40;99.90;;;;;;5094186;28;20033;-75
2022/01/01 13:38:57;;;;;;;;;;;12.40;99.90;;;;;;5094244;28;20001;-74
2022/01/01 13:41:23;;;;;;;;;;;12.40;99.90;;;;;;5094170;28;19920;-75
2022/01/01 13:43:48;;;;;;;;;;;11.30;99.90;;;;;;5094006;28;20011;-75
2022/01/01 13:46:34;;;;;;;;;;;12.40;99.90;;;;;;5093954;28;19923;-75
2022/01/01 13:48:59;;;;;;;;;;;12.40;99.90;;;;;;5093162;28;19975;-74
2022/01/01 13:51:27;;;;;;;;;;;12.40;99.90;;;;;;5092552;28;19959;-75
2022/01/01 13:54:05;;;;;;;;;;;12.40;99.90;;;;;;5093960;28;19920;-75
2022/01/01 13:56:31;;;;;;;;;;;12.40;99.90;;;;;;5093850;28;19920;-74
2022/01/01 13:58:58;;;;;;;;;;;12.40;99.90;;;;;;5094034;28;19973;-74
2022/01/01 14:01:24;;;;;;;;;;;12.40;99.90;;;;;;5093927;28;19982;-74
2022/01/01 14:03:52;;;;;;;;;;;12.60;99.90;;;;;;5092720;28;19920;-75
2022/01/01 14:06:27;;;;;;;;;;;12.40;99.90;;;;;;5093875;28;19920;-74
2022/01/01 14:09:05;;;;;;;;;;;12.30;99.90;;;;;;5092550;28;19942;-76
2022/01/01 14:11:35;;;;;;;;;;;12.30;99.90;;;;;;5093624;28;20298;-76
2022/01/01 14:14:04;;;;;;;;;;;12.30;99.90;;;;;;5093796;28;19932;-75
2022/01/01 14:16:30;;;;;;;;;;;11.50;99.90;;;;;;5093944;28;19927;-74
2022/01/01 14:19:00;;;;;;;;;;;12.30;99.90;;;;;;5097967;28;19924;-74
2022/01/01 14:21:26;;;;;;;;;;;12.30;99.90;;;;;;5097830;28;19973;-75